Time;durP1;ratioP1;P1;durP2;ratioP2;P2;SDS_P1;SDS_P2;PMS_P1;PMS_P2;Temp;Humidity;BMP_temperature;BMP_pressure;BME280_temperature;BME280_humidity;BME280_pressure;Samples;Min_cycle;Max_cycle;Signal;HPM_P1;HPM_P2
2023/04/22 00:00:41;;;;;;;10.70;4.13;;;;;;;12.31;63.97;101006.47;5096261;28;20441;-66
2023/04/22 00:03:08;;;;;;;11.67;4.13;;;;;;;12.32;64.58;100997.22;5096483;28;20519;-67
2023/04/22 00:05:36;;;;;;;10.53;3.53;;;;;;;12.29;64.35;100987.75;5096347;28;20441;-65
2023/04/22 00:08:16;;;;;;;8.77;4.03;;;;;;;12.29;64.00;100992.38;5096067;28;21046;-63
2023/04/22 00:10:46;;;;;;;11.73;4.23;;;;;;;12.28;64.60;100986.16;5096295;28;20452;-62
2023/04/22 00:13:14;;;;;;;9.83;3.80;;;;;;;12.21;63.51;100980.31;5096095;28;20468;-68
2023/04/22 00:15:41;;;;;;;10.37;4.03;;;;;;;12.17;63.09;100982.00;5096323;28;20440;-68
2023/04/22 00:18:12;;;;;;;10.17;4.63;;;;;;;12.15;63.54;100976.09;5096291;28;20547;-67
2023/04/22 00:20:39;;;;;;;14.63;4.03;;;;;;;12.10;63.12;100981.63;5096234;28;20432;-66
2023/04/22 00:23:06;;;;;;;11.27;3.93;;;;;;;12.06;63.15;100973.28;5095737;28;20998;-67
2023/04/22 00:25:33;;;;;;;9.10;3.60;;;;;;;12.04;63.16;100964.63;5096137;28;20536;-68
2023/04/22 00:28:00;;;;;;;11.20;3.33;;;;;;;12.00;63.10;100968.25;5096064;28;20475;-67
2023/04/22 00:30:28;;;;;;;8.17;3.80;;;;;;;11.98;62.53;100962.31;5095730;28;21014;-67
2023/04/22 00:32:54;;;;;;;13.43;4.07;;;;;;;11.95;63.58;100962.91;5095679;28;20488;-69
2023/04/22 00:35:21;;;;;;;11.70;3.63;;;;;;;11.95;64.40;100966.41;5095600;28;20450;-67
2023/04/22 00:37:48;;;;;;;7.60;3.70;;;;;;;11.96;65.04;100959.91;5095814;28;20528;-67
2023/04/22 00:40:14;;;;;;;8.60;3.37;;;;;;;12.00;65.41;100960.09;5095572;28;20440;-67
2023/04/22 00:42:43;;;;;;;10.10;4.50;;;;;;;11.98;65.62;100954.16;5095131;28;20519;-66
2023/04/22 00:45:11;;;;;;;9.67;4.17;;;;;;;11.98;65.37;100960.38;5095770;28;20455;-67
2023/04/22 00:47:41;;;;;;;10.10;4.27;;;;;;;11.98;64.58;100951.44;5095550;28;20560;-67
2023/04/22 00:50:08;;;;;;;7.50;3.00;;;;;;;11.91;64.72;100948.31;5095586;28;20436;-67
2023/04/22 00:52:35;;;;;;;7.40;3.23;;;;;;;11.93;64.74;100948.84;5095511;28;20456;-67
2023/04/22 00:55:02;;;;;;;8.47;3.20;;;;;;;11.96;65.75;100953.66;5095221;28;20476;-67
2023/04/22 00:57:30;;;;;;;9.40;4.23;;;;;;;11.90;65.84;100949.44;5095444;28;20487;-67
2023/04/22 00:59:57;;;;;;;9.10;3.60;;;;;;;11.89;66.52;100947.81;5095187;28;20939;-67
2023/04/22 01:02:24;;;;;;;13.13;3.80;;;;;;;11.84;66.91;100943.28;5095247;28;20512;-67
2023/04/22 01:04:54;;;;;;;12.00;4.00;;;;;;;11.79;67.08;100946.88;5095383;28;20854;-67
2023/04/22 01:07:20;;;;;;;8.20;3.40;;;;;;;11.71;68.51;100939.44;5095265;28;20436;-67
2023/04/22 01:09:47;;;;;;;8.93;3.70;;;;;;;11.71;68.91;100939.44;5094924;28;20445;-66
2023/04/22 01:12:14;;;;;;;8.43;3.70;;;;;;;11.70;68.89;100939.75;5095096;28;20440;-66
2023/04/22 01:14:41;;;;;;;10.87;3.27;;;;;;;11.63;68.82;100932.78;5095273;28;20447;-67
2023/04/22 01:17:09;;;;;;;9.77;3.97;;;;;;;11.55;69.01;100935.38;5094936;28;21046;-67
2023/04/22 01:19:37;;;;;;;8.87;3.87;;;;;;;11.49;69.89;100940.09;5094968;28;20447;-67
2023/04/22 01:22:06;;;;;;;7.73;3.63;;;;;;;11.37;67.40;100937.84;5094650;28;20484;-67
2023/04/22 01:24:34;;;;;;;8.70;4.17;;;;;;;11.31;64.59;100933.63;5094584;28;20547;-66
2023/04/22 01:27:01;;;;;;;8.80;3.40;;;;;;;11.26;66.24;100931.00;5095036;28;20463;-66
2023/04/22 01:29:28;;;;;;;9.00;3.17;;;;;;;11.18;65.21;100928.16;5095002;28;20872;-66
2023/04/22 01:31:55;;;;;;;11.30;3.90;;;;;;;11.06;65.99;100923.19;5094714;28;20540;-66
2023/04/22 01:34:22;;;;;;;9.40;3.83;;;;;;;11.04;66.30;100925.41;5094338;28;20463;-68
2023/04/22 01:36:49;;;;;;;10.30;4.30;;;;;;;10.98;66.97;100926.56;5094399;28;20449;-68
2023/04/22 01:39:16;;;;;;;7.67;3.70;;;;;;;10.88;69.94;100922.13;5094532;28;20797;-68
2023/04/22 01:41:44;;;;;;;8.33;3.40;;;;;;;10.84;71.21;100924.59;5094817;28;20485;-68
2023/04/22 01:44:11;;;;;;;9.63;4.37;;;;;;;10.78;72.00;100914.16;5094130;28;20983;-66
2023/04/22 01:46:37;;;;;;;9.10;3.67;;;;;;;10.76;72.25;100925.28;5094595;28;20814;-66
2023/04/22 01:49:04;;;;;;;14.87;3.50;;;;;;;10.73;74.18;100917.75;5094031;28;20519;-66
2023/04/22 01:51:31;;;;;;;8.90;3.90;;;;;;;10.72;73.40;100904.50;5094427;28;20448;-65
2023/04/22 01:53:58;;;;;;;8.93;3.93;;;;;;;10.70;73.94;100906.69;5094335;28;20470;-66
2023/04/22 01:56:24;;;;;;;8.00;3.53;;;;;;;10.72;73.42;100901.78;5094251;28;20436;-66
2023/04/22 01:58:52;;;;;;;8.67;3.60;;;;;;;10.73;73.05;100896.06;5094369;28;20442;-66
2023/04/22 02:01:19;;;;;;;10.73;4.77;;;;;;;10.73;72.82;100901.47;5094322;28;20464;-66
2023/04/22 02:03:45;;;;;;;10.23;4.30;;;;;;;10.78;73.03;100901.41;5094108;28;20496;-67
2023/04/22 02:06:12;;;;;;;9.57;4.07;;;;;;;10.72;73.75;100893.66;5093907;28;20955;-66
2023/04/22 02:08:38;;;;;;;9.20;4.10;;;;;;;10.73;73.45;100893.34;5094219;28;20466;-66
2023/04/22 02:11:05;;;;;;;11.43;4.33;;;;;;;10.70;73.84;100888.50;5094152;28;20534;-65
2023/04/22 02:13:36;;;;;;;10.07;4.30;;;;;;;10.68;73.79;100896.16;5093970;28;20453;-67
2023/04/22 02:16:05;;;;;;;9.67;4.07;;;;;;;10.67;74.21;100889.13;5094084;28;20523;-67
2023/04/22 02:18:31;;;;;;;10.93;3.60;;;;;;;10.67;74.17;100882.88;5093656;28;20481;-67
2023/04/22 02:20:58;;;;;;;8.87;3.93;;;;;;;10.68;75.04;100879.09;5093953;28;20823;-67
2023/04/22 02:23:25;;;;;;;7.20;3.10;;;;;;;10.62;74.90;100886.47;5093741;28;20491;-69
2023/04/22 02:25:52;;;;;;;11.83;4.50;;;;;;;10.58;75.26;100880.84;5093825;28;20439;-67
2023/04/22 02:28:19;;;;;;;12.57;3.90;;;;;;;10.58;74.84;100880.03;5093375;28;20472;-66
2023/04/22 02:30:46;;;;;;;9.23;3.80;;;;;;;10.56;74.74;100871.41;5093732;28;20440;-65
2023/04/22 02:33:14;;;;;;;12.37;4.10;;;;;;;10.58;74.51;100874.59;5093663;28;20456;-67
2023/04/22 02:35:41;;;;;;;10.03;3.90;;;;;;;10.56;73.51;100865.97;5094820;28;20455;-69
2023/04/22 02:38:07;;;;;;;11.60;5.00;;;;;;;10.54;74.04;100868.19;5093654;28;20874;-67
2023/04/22 02:40:34;;;;;;;12.00;5.20;;;;;;;10.53;73.09;100867.34;5093571;28;20465;-66
2023/04/22 02:43:00;;;;;;;9.93;3.50;;;;;;;10.53;69.74;100866.56;5093137;28;20487;-68
2023/04/22 02:45:27;;;;;;;9.20;4.23;;;;;;;10.52;68.68;100862.25;5093465;28;20451;-70
2023/04/22 02:47:54;;;;;;;9.70;4.40;;;;;;;10.54;67.99;100865.47;5093173;28;20472;-69
2023/04/22 02:50:22;;;;;;;9.00;4.30;;;;;;;10.55;67.49;100867.88;5093464;28;20527;-67
2023/04/22 02:52:48;;;;;;;8.80;4.17;;;;;;;10.57;66.47;100864.88;5093000;28;20460;-66
2023/04/22 02:55:15;;;;;;;11.43;4.30;;;;;;;10.57;66.11;100857.56;5093367;28;20479;-66
2023/04/22 02:57:41;;;;;;;10.43;4.10;;;;;;;10.58;67.29;100858.34;5093328;28;20433;-66
2023/04/22 03:00:10;;;;;;;9.87;4.40;;;;;;;10.63;68.84;100857.50;5092129;28;20437;-66
2023/04/22 03:02:37;;;;;;;10.00;3.73;;;;;;;10.64;70.11;100862.63;5092795;28;20950;-66
2023/04/22 03:05:04;;;;;;;8.70;3.70;;;;;;;10.70;69.86;100866.84;5093311;28;20494;-66
2023/04/22 03:07:32;;;;;;;8.30;3.57;;;;;;;10.72;69.34;100859.25;5093178;28;20449;-66
2023/04/22 03:09:58;;;;;;;11.10;5.20;;;;;;;10.74;69.32;100867.88;5093164;28;20532;-66
2023/04/22 03:12:25;;;;;;;9.10;3.70;;;;;;;10.78;69.39;100858.03;5092800;28;20820;-66
2023/04/22 03:14:52;;;;;;;11.77;4.43;;;;;;;10.75;69.02;100858.63;5093138;28;20436;-66
2023/04/22 03:17:19;;;;;;;11.23;4.27;;;;;;;10.77;68.89;100853.72;5092860;28;20482;-66
2023/04/22 03:19:46;;;;;;;10.87;4.33;;;;;;;10.78;70.31;100857.25;5093101;28;20440;-66
2023/04/22 03:22:13;;;;;;;8.70;4.00;;;;;;;10.78;69.62;100858.03;5092981;28;20484;-66
2023/04/22 03:24:40;;;;;;;8.70;4.00;;;;;;;10.75;70.41;100857.81;5093123;28;20880;-66
2023/04/22 03:27:07;;;;;;;12.33;4.50;;;;;;;10.74;70.77;100858.94;5092911;28;20476;-66
2023/04/22 03:29:34;;;;;;;9.60;3.73;;;;;;;10.71;71.05;100857.59;5093155;28;20468;-66
2023/04/22 03:32:01;;;;;;;11.93;3.93;;;;;;;10.70;71.19;100857.91;5093234;28;20447;-66
2023/04/22 03:34:27;;;;;;;20.10;4.80;;;;;;;10.67;71.61;100850.38;5092568;28;20994;-66
2023/04/22 03:36:54;;;;;;;11.20;3.57;;;;;;;10.64;71.74;100848.28;5092948;28;20814;-66
2023/04/22 03:39:21;;;;;;;13.27;3.83;;;;;;;10.63;72.19;100854.78;5092575;28;20531;-66
2023/04/22 03:41:49;;;;;;;10.07;4.10;;;;;;;10.60;72.41;100853.47;5092879;28;20475;-66
2023/04/22 03:44:15;;;;;;;9.70;3.90;;;;;;;10.49;72.82;100854.69;5092351;28;20488;-66
2023/04/22 03:46:42;;;;;;;17.60;4.87;;;;;;;10.43;73.36;100861.31;5092871;28;20467;-66
2023/04/22 03:49:08;;;;;;;10.60;4.40;;;;;;;10.34;74.16;100859.25;5092844;28;20440;-65
2023/04/22 03:51:35;;;;;;;11.90;4.60;;;;;;;10.38;74.55;100853.25;5092727;28;20823;-66
2023/04/22 03:54:01;;;;;;;11.27;4.80;;;;;;;10.23;76.21;100851.53;5092619;28;20543;-66
2023/04/22 03:56:28;;;;;;;9.90;4.23;;;;;;;10.16;76.04;100854.59;5092457;28;21014;-66
2023/04/22 03:58:56;;;;;;;13.30;4.13;;;;;;;10.08;74.30;100861.47;5092725;28;20447;-66
2023/04/22 04:01:23;;;;;;;9.90;4.80;;;;;;;10.00;72.68;100853.19;5092336;28;20447;-66
2023/04/22 04:03:49;;;;;;;11.80;4.43;;;;;;;9.94;73.03;100854.34;5092483;28;20484;-66
2023/04/22 04:06:16;;;;;;;10.67;4.40;;;;;;;9.72;73.80;100850.28;5092320;28;20964;-67
2023/04/22 04:08:43;;;;;;;11.53;3.90;;;;;;;9.49;75.21;100848.38;5092293;28;20456;-67
2023/04/22 04:11:10;;;;;;;11.80;4.40;;;;;;;9.44;74.95;100848.44;5093224;28;20474;-67
2023/04/22 04:13:37;;;;;;;12.80;4.60;;;;;;;9.44;75.81;100846.53;5096258;28;20461;-67
2023/04/22 04:16:05;;;;;;;13.67;4.73;;;;;;;9.31;79.27;100839.91;5096280;28;20439;-67
2023/04/22 04:18:32;;;;;;;11.40;5.07;;;;;;;9.30;80.20;100843.72;5096188;28;20509;-67
2023/04/22 04:20:59;;;;;;;11.67;4.20;;;;;;;9.42;79.81;100845.22;5095788;28;20444;-66
2023/04/22 04:23:26;;;;;;;9.97;4.17;;;;;;;9.36;80.78;100847.16;5095967;28;20587;-66
2023/04/22 04:25:52;;;;;;;11.97;4.73;;;;;;;9.39;80.65;100843.91;5096259;28;20539;-66
2023/04/22 04:28:19;;;;;;;9.93;4.20;;;;;;;9.44;80.58;100846.53;5095740;28;20543;-66
2023/04/22 04:30:45;;;;;;;23.83;5.00;;;;;;;9.34;81.87;100854.75;5095734;28;20970;-64
2023/04/22 04:33:16;;;;;;;7.70;3.77;;;;;;;9.34;81.59;100852.88;5095516;28;20997;-66
2023/04/22 04:35:43;;;;;;;9.87;4.00;;;;;;;9.20;82.39;100841.09;5095877;28;20541;-66
2023/04/22 04:38:10;;;;;;;12.20;5.03;;;;;;;9.25;81.95;100842.94;5095521;28;20449;-67
2023/04/22 04:40:37;;;;;;;9.80;4.53;;;;;;;9.28;81.80;100847.78;5095687;28;20444;-66
2023/04/22 04:43:07;;;;;;;9.27;4.37;;;;;;;9.25;82.32;100854.59;5095352;28;20584;-66
2023/04/22 04:45:35;;;;;;;9.83;4.90;;;;;;;9.23;83.08;100847.84;5095680;28;20518;-66
2023/04/22 04:48:02;;;;;;;13.83;5.53;;;;;;;9.28;82.86;100847.78;5095340;28;20865;-66
2023/04/22 04:50:30;;;;;;;11.10;4.73;;;;;;;9.35;83.12;100853.69;5095289;28;20489;-66
2023/04/22 04:52:57;;;;;;;11.27;5.03;;;;;;;9.39;83.27;100848.50;5095263;28;21046;-66
2023/04/22 04:55:24;;;;;;;10.73;5.33;;;;;;;9.45;83.39;100852.75;5095487;28;20471;-66
2023/04/22 04:57:50;;;;;;;13.43;5.10;;;;;;;9.54;84.21;100851.03;5095486;28;20480;-66
2023/04/22 05:00:17;;;;;;;10.40;4.63;;;;;;;9.59;84.38;100848.28;5095459;28;20447;-65
2023/04/22 05:02:44;;;;;;;11.37;5.10;;;;;;;9.59;84.59;100842.84;5095211;28;20499;-66
2023/04/22 05:05:11;;;;;;;10.13;4.57;;;;;;;9.71;83.45;100843.25;5095420;28;20463;-66
2023/04/22 05:07:39;;;;;;;8.80;4.20;;;;;;;9.74;82.96;100845.41;5095292;28;20817;-66
2023/04/22 05:10:06;;;;;;;11.37;4.43;;;;;;;9.84;81.56;100839.84;5095057;28;20484;-66
2023/04/22 05:12:33;;;;;;;9.87;4.17;;;;;;;9.91;80.47;100844.09;5094761;28;20464;-66
2023/04/22 05:14:59;;;;;;;12.40;5.93;;;;;;;10.00;78.23;100845.88;5095176;28;20467;-66
2023/04/22 05:17:26;;;;;;;10.37;4.73;;;;;;;10.11;77.59;100841.94;5095038;28;20535;-66
2023/04/22 05:19:53;;;;;;;14.10;5.10;;;;;;;10.22;76.25;100841.78;5095051;28;20442;-66
2023/04/22 05:22:19;;;;;;;12.30;5.43;;;;;;;10.29;75.11;100845.78;5094042;28;20970;-65
2023/04/22 05:24:47;;;;;;;10.60;4.50;;;;;;;10.40;74.08;100841.00;5094646;28;20495;-66
2023/04/22 05:27:14;;;;;;;19.83;5.00;;;;;;;10.56;73.61;100847.81;5094644;28;20436;-66
2023/04/22 05:29:41;;;;;;;11.13;5.03;;;;;;;10.65;73.04;100845.25;5094627;28;21015;-66
2023/04/22 05:32:08;;;;;;;12.57;5.40;;;;;;;10.75;72.40;100849.69;5094879;28;20449;-65
2023/04/22 05:34:34;;;;;;;9.73;4.40;;;;;;;10.82;72.18;100853.66;5094636;28;20463;-66
2023/04/22 05:37:03;;;;;;;9.57;4.47;;;;;;;10.98;71.54;100854.22;5094636;28;20551;-66
2023/04/22 05:39:29;;;;;;;8.70;4.10;;;;;;;11.09;71.40;100849.41;5094332;28;20439;-66
2023/04/22 05:41:57;;;;;;;9.10;4.00;;;;;;;11.23;70.38;100852.16;5094654;28;20815;-66
2023/04/22 05:44:24;;;;;;;13.90;5.57;;;;;;;11.35;70.01;100852.47;5094038;28;20584;-66
2023/04/22 05:46:50;;;;;;;11.47;4.93;;;;;;;11.50;69.57;100862.22;5094574;28;20538;-66
2023/04/22 05:49:17;;;;;;;13.23;4.70;;;;;;;11.58;69.28;100859.63;5094616;28;20483;-66
2023/04/22 05:51:44;;;;;;;14.33;5.00;;;;;;;11.70;68.43;100864.56;5094093;28;20969;-66
2023/04/22 05:54:10;;;;;;;11.27;5.30;;;;;;;11.80;68.04;100861.63;5094007;28;20488;-66
2023/04/22 05:56:37;;;;;;;16.57;5.30;;;;;;;11.88;67.95;100862.06;5094421;28;20809;-67
2023/04/22 05:59:05;;;;;;;11.27;4.87;;;;;;;11.98;67.10;100868.09;5093929;28;20959;-66
2023/04/22 06:01:31;;;;;;;9.63;5.07;;;;;;;12.07;65.53;100865.47;5093932;28;20484;-66
2023/04/22 06:03:58;;;;;;;10.53;4.47;;;;;;;12.20;65.35;100866.56;5094047;28;20480;-67
2023/04/22 06:06:25;;;;;;;9.70;5.27;;;;;;;12.33;64.25;100863.81;5094177;28;20531;-68
2023/04/22 06:08:51;;;;;;;8.97;4.33;;;;;;;12.40;63.81;100862.59;5093846;28;20448;-68
2023/04/22 06:11:18;;;;;;;12.70;5.60;;;;;;;12.54;63.00;100866.88;5093993;28;20823;-68
2023/04/22 06:13:44;;;;;;;11.33;5.00;;;;;;;12.65;62.87;100863.91;5093966;28;20548;-67
2023/04/22 06:16:12;;;;;;;9.90;4.60;;;;;;;12.68;62.57;100861.38;5093996;28;20440;-68
2023/04/22 06:18:39;;;;;;;12.37;5.13;;;;;;;12.75;62.61;100864.47;5093656;28;20444;-67
2023/04/22 06:21:06;;;;;;;11.57;5.00;;;;;;;12.86;62.71;100863.09;5093578;28;21034;-68
2023/04/22 06:23:32;;;;;;;9.67;4.30;;;;;;;12.94;61.58;100868.94;5093363;28;20484;-69
2023/04/22 06:26:00;;;;;;;10.73;5.20;;;;;;;13.01;61.11;100874.72;5093806;28;20448;-67
2023/04/22 06:28:27;;;;;;;11.73;5.67;;;;;;;13.12;60.43;100865.19;5093432;28;20951;-69
2023/04/22 06:30:53;;;;;;;11.40;5.00;;;;;;;13.21;60.54;100866.06;5093775;28;20487;-67
2023/04/22 06:33:21;;;;;;;13.13;5.33;;;;;;;13.27;61.80;100861.31;5093699;28;20556;-69
2023/04/22 06:35:48;;;;;;;10.27;5.27;;;;;;;13.26;60.94;100863.22;5093713;28;20466;-67
2023/04/22 06:38:14;;;;;;;12.47;5.30;;;;;;;13.31;60.88;100860.38;5093563;28;20440;-67
2023/04/22 06:40:42;;;;;;;11.00;4.90;;;;;;;13.34;61.12;100858.94;5093618;28;20911;-68
2023/04/22 06:43:09;;;;;;;12.87;5.60;;;;;;;13.37;60.90;100864.56;5093011;28;20474;-66
2023/04/22 06:45:35;;;;;;;11.20;5.27;;;;;;;13.48;60.48;100862.38;5093173;28;20543;-66
2023/04/22 06:48:02;;;;;;;16.27;5.80;;;;;;;13.57;60.01;100857.75;5093532;28;20459;-66
2023/04/22 06:50:30;;;;;;;13.27;5.17;;;;;;;13.59;60.33;100854.72;5093433;28;20528;-66
2023/04/22 06:52:56;;;;;;;11.73;5.27;;;;;;;13.67;59.76;100856.66;5093191;28;20460;-68
2023/04/22 06:55:23;;;;;;;9.57;4.20;;;;;;;13.75;59.55;100855.91;5093412;28;20527;-66
2023/04/22 06:57:50;;;;;;;10.97;5.17;;;;;;;13.86;57.78;100861.88;5093449;28;20445;-70
2023/04/22 07:00:17;;;;;;;12.80;5.40;;;;;;;13.99;57.45;100858.22;5093332;28;20437;-66
2023/04/22 07:02:44;;;;;;;11.13;4.80;;;;;;;14.05;58.58;100856.94;5092960;28;21017;-69
2023/04/22 07:05:11;;;;;;;10.20;4.63;;;;;;;14.08;58.28;100855.53;5093254;28;20575;-65
2023/04/22 07:07:39;;;;;;;10.17;4.70;;;;;;;14.17;58.02;100859.06;5093194;28;20935;-65
2023/04/22 07:10:06;;;;;;;11.13;4.93;;;;;;;14.29;57.78;100870.13;5092874;28;20958;-66
2023/04/22 07:12:33;;;;;;;14.77;6.03;;;;;;;14.36;57.41;100873.19;5092809;28;20855;-65
2023/04/22 07:15:00;;;;;;;13.13;5.53;;;;;;;14.50;56.29;100866.81;5092819;28;20428;-66
2023/04/22 07:17:26;;;;;;;14.77;5.10;;;;;;;14.59;57.05;100873.06;5093076;28;20467;-69
2023/04/22 07:19:53;;;;;;;12.37;4.73;;;;;;;14.65;56.69;100863.59;5092800;28;20931;-70
2023/04/22 07:22:19;;;;;;;12.63;5.10;;;;;;;14.72;56.71;100855.72;5093029;28;20443;-69
2023/04/22 07:24:47;;;;;;;11.30;5.10;;;;;;;14.83;56.91;100858.91;5092699;28;20483;-66
2023/04/22 07:27:14;;;;;;;14.37;5.93;;;;;;;14.87;57.00;100855.25;5093081;28;20480;-67
2023/04/22 07:29:41;;;;;;;9.93;4.90;;;;;;;14.94;56.63;100853.94;5093003;28;20519;-67
2023/04/22 07:32:07;;;;;;;10.20;4.73;;;;;;;15.11;54.72;100853.91;5093043;28;20441;-67
2023/04/22 07:34:34;;;;;;;11.63;4.73;;;;;;;15.24;55.03;100855.66;5092918;28;20517;-68
2023/04/22 07:37:01;;;;;;;12.23;4.60;;;;;;;15.31;55.22;100852.41;5092815;28;20528;-68
2023/04/22 07:39:27;;;;;;;16.83;5.10;;;;;;;15.40;54.79;100855.91;5092666;28;20532;-68
2023/04/22 07:41:56;;;;;;;14.80;5.37;;;;;;;15.47;54.80;100849.94;5092283;28;21045;-67
2023/04/22 07:44:23;;;;;;;23.37;5.77;;;;;;;15.55;54.26;100847.19;5092117;28;20535;-67
2023/04/22 07:46:50;;;;;;;10.03;4.63;;;;;;;15.66;55.00;100850.38;5094603;28;20451;-67
2023/04/22 07:49:16;;;;;;;11.80;4.83;;;;;;;15.72;54.92;100851.81;5096517;28;20428;-68
2023/04/22 07:51:43;;;;;;;9.70;3.90;;;;;;;15.85;54.38;100852.69;5096096;28;20448;-67
2023/04/22 07:54:10;;;;;;;14.40;5.27;;;;;;;15.88;54.31;100849.28;5096310;28;20499;-66
2023/04/22 07:56:37;;;;;;;11.10;4.43;;;;;;;15.87;53.30;100837.56;5096306;28;20558;-68
2023/04/22 07:59:04;;;;;;;12.70;4.87;;;;;;;15.92;53.72;100828.38;5096066;28;21033;-68
2023/04/22 08:01:31;;;;;;;10.13;4.73;;;;;;;15.96;53.15;100834.78;5095987;28;20479;-68
2023/04/22 08:03:58;;;;;;;13.27;4.53;;;;;;;16.05;53.47;100827.31;5096461;28;20580;-68
2023/04/22 08:06:24;;;;;;;10.17;4.57;;;;;;;16.15;52.95;100831.59;5096532;28;20436;-68
2023/04/22 08:08:51;;;;;;;11.13;4.90;;;;;;;16.25;53.60;100817.56;5096645;28;20448;-68
2023/04/22 08:11:18;;;;;;;10.00;4.80;;;;;;;16.38;52.44;100824.69;5096615;28;20463;-68
2023/04/22 08:13:44;;;;;;;10.57;5.23;;;;;;;16.50;52.64;100829.38;5096346;28;20547;-68
2023/04/22 08:16:12;;;;;;;10.07;4.73;;;;;;;16.60;52.56;100826.25;5096435;28;20529;-68
2023/04/22 08:18:39;;;;;;;17.63;4.70;;;;;;;16.64;51.86;100815.44;5096285;28;20443;-68
2023/04/22 08:21:06;;;;;;;15.50;4.77;;;;;;;16.76;51.76;100826.44;5095939;28;20446;-68
2023/04/22 08:23:32;;;;;;;11.40;5.20;;;;;;;17.00;50.05;100817.53;5096177;28;20551;-68
2023/04/22 08:25:59;;;;;;;14.53;4.97;;;;;;;17.18;49.62;100823.63;5095927;28;20440;-68
2023/04/22 08:28:26;;;;;;;11.17;4.70;;;;;;;17.25;48.51;100818.34;5096220;28;20432;-68
2023/04/22 08:30:52;;;;;;;15.10;3.83;;;;;;;17.35;48.47;100817.94;5096185;28;20475;-68
2023/04/22 08:33:20;;;;;;;10.33;3.40;;;;;;;17.43;49.66;100818.16;5096009;28;20448;-68
2023/04/22 08:35:47;;;;;;;11.43;5.00;;;;;;;17.44;49.19;100819.75;5095926;28;20533;-68
2023/04/22 08:38:14;;;;;;;12.90;4.90;;;;;;;17.45;49.79;100813.16;5095843;28;20472;-68
2023/04/22 08:40:41;;;;;;;9.87;4.30;;;;;;;17.51;50.25;100809.03;5095560;28;20436;-66
2023/04/22 08:43:08;;;;;;;9.60;4.10;;;;;;;17.63;50.78;100811.78;5095593;28;20479;-68
2023/04/22 08:45:39;;;;;;;8.93;3.83;;;;;;;17.72;49.48;100814.41;5095903;28;20567;-68
2023/04/22 08:48:07;;;;;;;9.80;4.23;;;;;;;17.78;49.85;100813.03;5095876;28;20451;-68
2023/04/22 08:50:37;;;;;;;9.47;3.93;;;;;;;17.83;49.41;100810.06;5095819;28;20538;-67
2023/04/22 08:53:03;;;;;;;7.30;3.40;;;;;;;17.86;49.93;100812.91;5095825;28;20559;-67
2023/04/22 08:55:31;;;;;;;9.27;4.23;;;;;;;17.90;49.13;100822.06;5095655;28;20479;-67
2023/04/22 08:58:00;;;;;;;9.00;3.67;;;;;;;18.04;49.27;100812.66;5094324;28;20448;-67
2023/04/22 09:00:27;;;;;;;8.00;3.80;;;;;;;18.27;47.69;100819.22;5095196;28;20970;-67
2023/04/22 09:02:54;;;;;;;8.60;3.67;;;;;;;18.33;48.51;100815.13;5095017;28;20900;-67
2023/04/22 09:05:23;;;;;;;10.00;4.27;;;;;;;18.37;48.97;100813.28;5095349;28;20491;-67
2023/04/22 09:07:52;;;;;;;11.87;4.70;;;;;;;18.40;48.62;100807.06;5095456;28;20498;-67
2023/04/22 09:10:19;;;;;;;12.87;4.23;;;;;;;18.39;48.84;100805.47;5095039;28;21058;-67
2023/04/22 09:12:47;;;;;;;9.53;3.83;;;;;;;18.54;48.97;100803.13;5095255;28;20501;-67
2023/04/22 09:15:13;;;;;;;11.17;4.80;;;;;;;18.61;48.32;100798.66;5095191;28;20527;-69
2023/04/22 09:17:42;;;;;;;15.80;4.83;;;;;;;18.69;47.99;100801.59;5095435;28;20448;-67
2023/04/22 09:20:11;;;;;;;7.83;3.70;;;;;;;18.70;47.49;100795.78;5094805;28;20495;-67
2023/04/22 09:22:39;;;;;;;11.40;3.37;;;;;;;18.67;47.88;100788.22;5094689;28;20990;-67
2023/04/22 09:25:15;;;;;;;10.77;3.80;;;;;;;18.90;46.72;100792.03;5095023;28;20488;-67
2023/04/22 09:27:42;;;;;;;7.87;3.63;;;;;;;19.03;47.72;100783.69;5095250;28;20424;-67
2023/04/22 09:30:10;;;;;;;7.40;3.20;;;;;;;19.13;46.90;100794.16;5094953;28;20446;-67
2023/04/22 09:32:36;;;;;;;9.23;3.77;;;;;;;19.19;47.84;100784.50;5094373;28;20495;-67
2023/04/22 09:35:03;;;;;;;9.40;3.80;;;;;;;19.22;47.18;100780.25;5094821;28;20439;-68
2023/04/22 09:37:31;;;;;;;8.90;3.43;;;;;;;19.25;47.21;100779.53;5094464;28;20827;-68
2023/04/22 09:39:58;;;;;;;9.20;3.57;;;;;;;19.31;46.71;100787.16;5094496;28;20448;-68
2023/04/22 09:42:25;;;;;;;7.97;3.30;;;;;;;19.43;47.63;100775.25;5094394;28;20452;-67
2023/04/22 09:44:52;;;;;;;10.63;4.27;;;;;;;19.49;47.67;100773.06;5094802;28;20461;-68
2023/04/22 09:47:19;;;;;;;8.00;3.53;;;;;;;19.60;47.10;100779.59;5094833;28;20507;-68
2023/04/22 09:49:48;;;;;;;17.93;3.13;;;;;;;19.70;45.47;100768.09;5094820;28;20949;-68
2023/04/22 09:52:22;;;;;;;11.53;3.00;;;;;;;19.77;44.48;100768.22;5094757;28;20448;-68
2023/04/22 09:54:50;;;;;;;6.50;3.30;;;;;;;19.83;46.05;100760.50;5094879;28;20425;-68
2023/04/22 09:57:17;;;;;;;8.27;3.23;;;;;;;19.97;46.21;100754.53;5094150;28;20883;-67
2023/04/22 09:59:45;;;;;;;8.33;3.60;;;;;;;20.12;45.28;100757.19;5094420;28;20548;-68
2023/04/22 10:02:12;;;;;;;6.67;3.10;;;;;;;20.09;45.79;100749.66;5094398;28;20476;-68
2023/04/22 10:04:39;;;;;;;8.17;3.47;;;;;;;20.04;43.39;100751.91;5094169;28;20575;-68
2023/04/22 10:07:05;;;;;;;7.90;3.20;;;;;;;20.11;44.86;100747.38;5094266;28;20453;-68
2023/04/22 10:09:33;;;;;;;9.03;3.20;;;;;;;20.15;46.05;100745.47;5093781;28;20444;-68
2023/04/22 10:12:00;;;;;;;8.10;2.90;;;;;;;20.33;44.79;100742.28;5094041;28;20517;-68
2023/04/22 10:14:27;;;;;;;6.43;2.60;;;;;;;20.61;42.18;100740.09;5093900;28;20460;-68
2023/04/22 10:16:58;;;;;;;7.67;3.40;;;;;;;20.75;41.22;100739.56;5094338;28;20451;-68
2023/04/22 10:19:27;;;;;;;9.23;3.50;;;;;;;20.82;41.80;100739.69;5094034;28;20432;-68
2023/04/22 10:21:57;;;;;;;6.83;3.20;;;;;;;20.88;43.82;100726.41;5093552;28;20527;-68
2023/04/22 10:24:26;;;;;;;8.10;3.20;;;;;;;20.99;39.98;100723.84;5093923;28;20475;-68
2023/04/22 10:26:56;;;;;;;8.17;3.43;;;;;;;21.02;40.40;100721.13;5093654;28;20519;-68
2023/04/22 10:29:23;;;;;;;9.10;3.33;;;;;;;20.95;41.09;100714.72;5093722;28;20447;-68
2023/04/22 10:31:57;;;;;;;7.47;2.83;;;;;;;20.99;41.33;100718.34;5093758;28;20509;-68
2023/04/22 10:34:24;;;;;;;8.13;2.40;;;;;;;21.04;41.28;100713.31;5093520;28;20551;-68
2023/04/22 10:36:59;;;;;;;6.07;2.47;;;;;;;21.16;39.86;100712.28;5093547;28;20448;-68
2023/04/22 10:39:27;;;;;;;7.07;2.90;;;;;;;21.24;40.59;100714.00;5093188;28;20519;-68
2023/04/22 10:41:57;;;;;;;8.57;3.00;;;;;;;21.26;40.05;100702.63;5093210;28;20988;-68
2023/04/22 10:44:29;;;;;;;8.50;3.60;;;;;;;21.47;36.83;100702.16;5092993;28;20555;-68
2023/04/22 10:47:00;;;;;;;7.83;3.27;;;;;;;21.54;37.01;100705.81;5093617;28;20431;-68
2023/04/22 10:49:31;;;;;;;6.10;2.73;;;;;;;21.62;36.57;100709.47;5093200;28;20455;-68
2023/04/22 10:51:59;;;;;;;6.80;2.80;;;;;;;21.71;36.54;100696.19;5093583;28;20466;-68
2023/04/22 10:54:57;;;;;;;11.13;3.03;;;;;;;21.88;36.28;100709.44;5093266;28;20535;-67
2023/04/22 10:57:34;;;;;;;14.43;3.40;;;;;;;21.87;36.62;100699.56;5093293;28;20444;-67
2023/04/22 11:00:01;;;;;;;7.00;2.83;;;;;;;22.06;35.33;100695.06;5093038;28;20432;-68
2023/04/22 11:02:29;;;;;;;8.00;2.90;;;;;;;22.10;37.27;100701.41;5093107;28;20440;-68
2023/04/22 11:05:20;;;;;;;7.10;3.03;;;;;;;22.21;38.33;100699.59;5093103;28;20476;-68
2023/04/22 11:07:48;;;;;;;11.50;3.33;;;;;;;22.40;38.58;100693.91;5093162;28;20793;-71
2023/04/22 11:10:33;;;;;;;7.20;3.37;;;;;;;22.66;38.79;100689.38;5092745;28;20868;-68
2023/04/22 11:13:01;;;;;;;6.30;2.63;;;;;;;23.03;38.45;100681.06;5092804;28;20462;-69
2023/04/22 11:15:30;;;;;;;8.20;3.47;;;;;;;23.60;37.12;100675.88;5092613;28;20954;-69
2023/04/22 11:17:59;;;;;;;7.30;2.63;;;;;;;24.45;37.33;100680.16;5093029;28;20443;-69
2023/04/22 11:20:25;;;;;;;8.60;3.37;;;;;;;25.15;34.72;100686.16;5092733;28;20478;-69
2023/04/22 11:22:54;;;;;;;7.57;2.90;;;;;;;25.77;33.61;100682.84;5096696;28;20456;-69